Time;durP1;ratioP1;P1;durP2;ratioP2;P2;SDS_P1;SDS_P2;PMS_P1;PMS_P2;Temp;Humidity;BMP_temperature;BMP_pressure;BME280_temperature;BME280_humidity;BME280_pressure;Samples;Min_cycle;Max_cycle;Signal;HPM_P1;HPM_P2
2023/09/30 00:00:08;;;;;;;4.07;1.67;;;;;;;18.72;84.76;102071.00;20840806;28;20056;-66
2023/09/30 00:10:13;;;;;;;4.80;1.98;;;;;;;18.72;84.66;102086.34;20847352;28;20045;-66
2023/09/30 00:20:14;;;;;;;5.18;1.80;;;;;;;18.68;84.25;102089.28;20828175;28;20148;-66
2023/09/30 00:30:16;;;;;;;3.10;1.40;;;;;;;18.67;84.28;102070.50;20846221;28;20052;-66
2023/09/30 00:40:18;;;;;;;4.05;1.60;;;;;;;18.63;83.94;102067.16;20831906;28;20056;-66
2023/09/30 00:50:21;;;;;;;3.25;1.33;;;;;;;18.64;83.98;102058.09;20836800;28;20481;-66
2023/09/30 01:00:25;;;;;;;3.08;1.63;;;;;;;18.61;83.97;102060.16;20824774;28;20501;-66
2023/09/30 01:10:27;;;;;;;3.92;1.80;;;;;;;18.60;83.75;102094.38;20826787;28;20052;-66
2023/09/30 01:20:29;;;;;;;2.42;1.40;;;;;;;18.57;83.77;102108.09;20826095;28;20048;-66
2023/09/30 01:30:33;;;;;;;3.00;1.40;;;;;;;18.53;83.79;102106.56;20828844;28;20053;-66
2023/09/30 01:40:35;;;;;;;3.72;1.73;;;;;;;18.53;83.40;102103.84;20804989;28;20747;-66
2023/09/30 01:50:40;;;;;;;4.13;1.65;;;;;;;18.52;83.51;102096.75;20825832;28;20134;-66
2023/09/30 02:00:42;;;;;;;3.10;1.35;;;;;;;18.50;83.16;102091.47;20823908;28;20459;-66
2023/09/30 02:10:43;;;;;;;2.50;1.60;;;;;;;18.47;83.29;102096.22;20845648;28;20044;-66
2023/09/30 02:20:45;;;;;;;3.17;1.40;;;;;;;18.47;82.93;102089.00;20816510;28;20045;-66
2023/09/30 02:30:48;;;;;;;3.83;1.20;;;;;;;18.48;82.62;102095.25;20812760;28;20081;-66
2023/09/30 02:40:51;;;;;;;3.15;1.38;;;;;;;18.47;82.53;102096.22;20830525;28;20053;-66
2023/09/30 02:50:54;;;;;;;2.72;1.52;;;;;;;18.46;82.52;102098.06;20862649;28;20062;-66
2023/09/30 03:00:56;;;;;;;3.30;1.40;;;;;;;18.43;82.55;102089.31;20835870;28;20136;-66
2023/09/30 03:10:58;;;;;;;3.25;1.30;;;;;;;18.44;82.31;102099.13;20841972;28;20052;-66
2023/09/30 03:21:01;;;;;;;2.45;1.17;;;;;;;18.39;82.39;102086.00;20841666;28;20053;-66
2023/09/30 03:31:04;;;;;;;2.58;1.40;;;;;;;18.38;82.23;102103.16;20851189;28;20049;-66
2023/09/30 03:41:08;;;;;;;3.08;1.55;;;;;;;18.36;81.89;102097.84;20786747;28;20053;-66
2023/09/30 03:51:13;;;;;;;4.07;1.60;;;;;;;18.37;81.95;102099.56;20838687;28;20083;-66
2023/09/30 04:01:19;;;;;;;3.13;1.23;;;;;;;18.34;81.59;102089.00;20867152;28;20048;-66
2023/09/30 04:11:21;;;;;;;3.33;1.27;;;;;;;18.35;81.85;102096.13;20928074;28;20106;-66
2023/09/30 04:21:23;;;;;;;4.32;1.52;;;;;;;18.33;81.80;102098.06;20824421;28;20132;-66
2023/09/30 04:31:25;;;;;;;3.70;1.83;;;;;;;18.28;81.60;102089.47;20833124;28;20552;-66
2023/09/30 04:41:26;;;;;;;2.20;1.30;;;;;;;18.25;81.72;102101.31;20878776;28;20049;-66
2023/09/30 04:51:30;;;;;;;2.90;1.23;;;;;;;18.23;81.79;102111.34;20861378;28;20476;-66
2023/09/30 05:01:32;;;;;;;2.92;1.25;;;;;;;18.23;81.77;102134.75;20840260;28;20106;-66
2023/09/30 05:11:35;;;;;;;2.42;1.33;;;;;;;18.22;81.56;102141.97;20838907;28;20140;-66
2023/09/30 05:21:37;;;;;;;3.08;1.90;;;;;;;18.20;81.47;102151.16;20840277;28;20417;-66
2023/09/30 05:31:39;;;;;;;3.25;1.40;;;;;;;18.20;81.60;102167.31;20829290;28;20056;-66
2023/09/30 05:41:42;;;;;;;3.40;1.55;;;;;;;18.19;81.29;102157.50;20833184;28;20060;-66
2023/09/30 05:51:43;;;;;;;2.03;1.30;;;;;;;18.18;81.14;102163.88;20844558;28;20063;-66
2023/09/30 06:01:46;;;;;;;3.13;1.50;;;;;;;18.17;80.98;102173.78;20811130;28;20048;-66
2023/09/30 06:11:48;;;;;;;2.88;1.60;;;;;;;18.20;80.88;102178.09;20841449;28;20064;-66
2023/09/30 06:21:50;;;;;;;2.15;1.23;;;;;;;18.20;80.50;102183.50;20833130;28;20119;-65
2023/09/30 06:31:52;;;;;;;3.72;1.80;;;;;;;18.22;80.50;102192.34;20800925;28;20102;-66
2023/09/30 06:41:53;;;;;;;3.58;1.70;;;;;;;18.23;80.39;102200.28;20830938;28;20052;-66
2023/09/30 06:51:55;;;;;;;3.92;1.88;;;;;;;18.32;80.26;102204.19;20835005;28;20550;-66
2023/09/30 07:01:57;;;;;;;2.17;1.30;;;;;;;18.41;79.85;102210.78;20794819;28;20063;-66
2023/09/30 07:11:59;;;;;;;3.00;1.42;;;;;;;18.51;79.98;102203.75;20797357;28;20065;-65
2023/09/30 07:22:02;;;;;;;4.93;1.73;;;;;;;18.90;79.91;102229.84;20807846;28;20053;-61
2023/09/30 07:32:07;;;;;;;3.78;1.75;;;;;;;19.20;79.47;102248.38;20800109;28;20049;-61
2023/09/30 07:42:09;;;;;;;2.50;1.63;;;;;;;19.55;78.73;102247.59;20821919;28;20061;-62
2023/09/30 07:52:11;;;;;;;3.25;1.60;;;;;;;19.99;78.04;102271.41;20808985;28;20604;-62
2023/09/30 08:02:13;;;;;;;2.95;1.92;;;;;;;20.26;77.81;102279.25;20829688;28;20064;-61
2023/09/30 08:12:14;;;;;;;3.92;1.98;;;;;;;20.41;77.81;102276.31;20796371;28;20144;-67
2023/09/30 08:22:16;;;;;;;4.22;2.08;;;;;;;20.55;77.73;102275.25;20803356;28;20509;-60
2023/09/30 08:32:18;;;;;;;3.67;1.60;;;;;;;20.67;77.92;102281.53;20807298;28;20049;-60
2023/09/30 08:42:21;;;;;;;5.65;1.80;;;;;;;20.84;77.70;102272.13;20792593;28;20083;-61
2023/09/30 08:52:24;;;;;;;3.77;1.87;;;;;;;21.09;77.42;102280.97;20763077;28;20052;-61
2023/09/30 09:02:26;;;;;;;4.45;1.70;;;;;;;21.20;77.44;102280.09;20795436;28;20068;-61
2023/09/30 09:12:28;;;;;;;3.30;1.60;;;;;;;21.28;77.29;102275.78;20819326;28;20412;-61
2023/09/30 09:22:43;;;;;;;4.85;2.47;;;;;;;21.36;77.19;102275.13;20847100;28;20465;-62
2023/09/30 09:32:55;;;;;;;3.45;1.92;;;;;;;21.57;77.73;102293.34;20812986;28;20061;-62
2023/09/30 09:42:57;;;;;;;5.65;2.35;;;;;;;21.57;77.68;102312.31;20776384;28;20556;-63
2023/09/30 09:53:00;;;;;;;4.20;2.15;;;;;;;21.44;77.41;102291.66;20798302;28;20068;-62
2023/09/30 10:03:02;;;;;;;6.20;2.22;;;;;;;21.52;77.74;102288.28;20803672;28;20130;-62
2023/09/30 10:13:05;;;;;;;5.65;2.70;;;;;;;21.56;78.45;102289.75;20803519;28;20068;-62
2023/09/30 10:23:27;;;;;;;5.30;2.60;;;;;;;21.59;78.85;102308.47;20810042;28;20563;-62
2023/09/30 10:33:29;;;;;;;4.47;2.15;;;;;;;21.61;78.98;102313.78;20822967;28;20184;-62
2023/09/30 10:43:38;;;;;;;4.22;2.03;;;;;;;21.51;79.29;102291.13;20793330;28;20445;-62
2023/09/30 10:53:56;;;;;;;5.32;2.15;;;;;;;21.63;79.72;102317.22;20796939;28;20053;-62
2023/09/30 11:04:04;;;;;;;6.00;1.98;;;;;;;21.67;79.71;102298.91;20797394;28;20149;-62
2023/09/30 11:14:29;;;;;;;3.58;1.80;;;;;;;21.58;79.30;102289.66;20810184;28;20099;-62
2023/09/30 11:24:34;;;;;;;;;;;;;;;21.58;79.42;102298.63;20800660;28;20057;-64
2023/09/30 11:34:40;;;;;;;4.57;1.47;;;;;;;21.55;79.41;102274.47;20798870;28;19925;-62
2023/09/30 11:44:47;;;;;;;3.45;1.90;;;;;;;21.49;78.94;102277.72;20799601;28;20049;-62
2023/09/30 11:54:48;;;;;;;3.13;1.27;;;;;;;21.42;78.67;102266.50;20798267;28;20052;-62
2023/09/30 12:04:50;;;;;;;2.83;1.05;;;;;;;21.38;78.57;102272.31;20807916;28;20068;-62
2023/09/30 12:14:54;;;;;;;2.13;1.33;;;;;;;21.37;78.68;102257.91;20798262;28;20122;-62
2023/09/30 12:24:56;;;;;;;2.20;1.07;;;;;;;21.38;78.41;102272.31;20797048;28;20056;-62
2023/09/30 12:34:58;;;;;;;2.83;1.45;;;;;;;21.33;77.93;102251.00;20791266;28;20045;-62
2023/09/30 12:45:01;;;;;;;4.10;1.13;;;;;;;21.41;77.92;102263.94;20800098;28;20052;-62
2023/09/30 12:55:04;;;;;;;4.53;1.27;;;;;;;21.44;77.36;102245.59;20802971;28;20079;-63
2023/09/30 13:05:06;;;;;;;2.60;1.00;;;;;;;21.43;77.10;102243.00;20797818;28;20068;-63
2023/09/30 13:15:09;;;;;;;1.98;0.88;;;;;;;21.44;76.76;102247.44;20789343;28;20053;-61
2023/09/30 13:25:12;;;;;;;2.28;1.00;;;;;;;21.41;76.17;102221.44;20796862;28;22176;-61
2023/09/30 13:35:14;;;;;;;2.55;1.00;;;;;;;21.51;75.57;102224.25;20790326;28;20130;-62
2023/09/30 13:45:17;;;;;;;1.73;0.90;;;;;;;21.53;75.58;102203.31;20800669;28;20329;-61
2023/09/30 13:55:19;;;;;;;1.60;0.75;;;;;;;21.48;75.45;102186.56;20812013;28;20045;-62
2023/09/30 14:05:20;;;;;;;2.15;0.90;;;;;;;21.55;74.91;102200.47;20816291;28;20048;-63
2023/09/30 14:15:22;;;;;;;2.47;0.80;;;;;;;21.55;74.82;102212.16;20792426;28;20052;-63
2023/09/30 14:25:24;;;;;;;3.42;1.05;;;;;;;21.54;74.45;102206.88;20812586;28;20041;-63
2023/09/30 14:35:26;;;;;;;1.83;1.00;;;;;;;21.49;74.14;102207.25;20824486;28;20104;-63
2023/09/30 14:45:28;;;;;;;2.83;0.90;;;;;;;21.49;73.79;102196.41;20818092;28;20072;-60
2023/09/30 14:55:33;;;;;;;1.52;0.70;;;;;;;21.50;73.63;102184.59;20805241;28;20045;-62
2023/09/30 15:05:35;;;;;;;2.83;0.88;;;;;;;21.49;74.15;102180.16;20808905;28;20057;-62
2023/09/30 15:15:37;;;;;;;2.60;0.90;;;;;;;21.50;74.26;102157.50;20807165;28;20053;-62
2023/09/30 15:25:43;;;;;;;2.00;0.98;;;;;;;21.50;74.62;102162.91;20811029;28;20628;-62
2023/09/30 15:35:46;;;;;;;1.98;1.00;;;;;;;21.46;74.93;102168.75;20808849;28;20111;-63
2023/09/30 15:45:48;;;;;;;2.65;1.08;;;;;;;21.46;75.34;102163.31;20805838;28;20064;-61
2023/09/30 15:55:50;;;;;;;1.23;0.80;;;;;;;21.43;75.35;102150.88;20812932;28;20049;-62
2023/09/30 16:05:52;;;;;;;3.85;1.35;;;;;;;21.40;76.05;102153.84;20799737;28;20549;-64
2023/09/30 16:15:54;;;;;;;2.35;1.10;;;;;;;21.34;80.49;102148.97;20807281;28;20057;-62
2023/09/30 16:25:56;;;;;;;4.53;2.42;;;;;;;21.30;88.56;102149.22;20798577;28;20042;-62
2023/09/30 16:35:58;;;;;;;4.70;1.83;;;;;;;21.37;88.95;102152.25;20814360;28;20173;-63
2023/09/30 16:46:00;;;;;;;4.85;2.00;;;;;;;21.39;90.06;102152.13;20806095;28;20052;-63
2023/09/30 16:56:03;;;;;;;3.80;1.88;;;;;;;21.41;90.60;102153.72;20806139;28;20515;-61
2023/09/30 17:06:05;;;;;;;3.53;1.67;;;;;;;21.39;89.22;102158.41;20806975;28;20049;-61
2023/09/30 17:16:07;;;;;;;3.60;1.77;;;;;;;21.37;88.40;102159.53;20800353;28;20049;-61
2023/09/30 17:26:09;;;;;;;2.72;1.23;;;;;;;21.26;87.17;102164.00;20795216;28;20444;-61
2023/09/30 17:36:11;;;;;;;3.88;1.60;;;;;;;21.21;86.56;102160.84;20803642;28;20554;-65
2023/09/30 17:46:15;;;;;;;4.53;1.33;;;;;;;21.13;86.09;102161.47;20797314;28;20100;-65
2023/09/30 17:56:17;;;;;;;2.87;1.13;;;;;;;21.06;86.45;102167.50;20801964;28;20583;-65
2023/09/30 18:06:19;;;;;;;3.65;1.50;;;;;;;21.01;86.41;102166.03;20792664;28;20052;-65
2023/09/30 18:16:22;;;;;;;3.60;1.30;;;;;;;20.99;86.35;102178.84;20799191;28;20053;-67
2023/09/30 18:26:25;;;;;;;2.13;1.20;;;;;;;20.91;86.35;102175.91;20818756;28;20049;-66
2023/09/30 18:36:27;;;;;;;2.13;1.05;;;;;;;20.91;85.94;102164.19;20819710;28;20056;-66
2023/09/30 18:46:30;;;;;;;3.20;1.25;;;;;;;20.81;85.76;102159.53;20799671;28;20048;-66
2023/09/30 18:56:32;;;;;;;2.00;1.13;;;;;;;20.76;85.49;102161.72;20802798;28;20045;-67
2023/09/30 19:06:33;;;;;;;3.88;1.20;;;;;;;20.72;85.24;102161.09;20801704;28;20186;-66
2023/09/30 19:16:37;;;;;;;4.25;1.67;;;;;;;20.68;84.81;102153.38;20788693;28;20127;-67
2023/09/30 19:26:39;;;;;;;2.20;0.93;;;;;;;20.62;84.89;102148.47;20792111;28;20461;-66
2023/09/30 19:36:41;;;;;;;2.10;1.08;;;;;;;20.53;84.96;102167.16;20832903;28;20052;-66
2023/09/30 19:46:43;;;;;;;3.03;1.30;;;;;;;20.47;84.85;102169.50;20842382;28;20141;-66
2023/09/30 19:56:46;;;;;;;2.90;1.25;;;;;;;20.41;84.57;102166.31;20818220;28;20052;-66
2023/09/30 20:06:48;;;;;;;6.13;2.78;;;;;;;20.33;85.91;102149.84;20817186;28;20493;-66
2023/09/30 20:16:50;;;;;;;5.35;1.75;;;;;;;20.29;87.77;102132.09;20822326;28;20053;-66
2023/09/30 20:26:52;;;;;;;4.80;2.03;;;;;;;20.25;88.78;102152.25;20834250;28;20516;-66
2023/09/30 20:36:54;;;;;;;3.83;2.10;;;;;;;20.18;88.67;102156.44;20822434;28;20044;-66
2023/09/30 20:46:56;;;;;;;3.63;1.60;;;;;;;20.09;88.22;102147.19;20749083;28;20062;-66
2023/09/30 20:56:59;;;;;;;3.75;1.90;;;;;;;20.14;87.71;102145.03;20724944;28;20072;-66
2023/09/30 21:07:01;;;;;;;3.85;1.73;;;;;;;20.12;87.36;102141.56;20733491;28;20048;-66
2023/09/30 21:17:03;;;;;;;4.63;2.15;;;;;;;20.10;86.83;102136.28;20721452;28;20056;-66
2023/09/30 21:27:05;;;;;;;3.95;2.00;;;;;;;20.09;86.45;102120.16;20734693;28;20413;-66
2023/09/30 21:37:07;;;;;;;5.25;2.38;;;;;;;20.07;85.97;102138.34;20730414;28;20111;-66
2023/09/30 21:47:09;;;;;;;4.18;1.75;;;;;;;20.05;85.73;102119.56;20804492;28;20054;-66
2023/09/30 21:57:11;;;;;;;4.93;2.40;;;;;;;20.01;85.39;102128.91;20798166;28;20049;-66
2023/09/30 22:07:13;;;;;;;6.28;2.63;;;;;;;19.97;85.21;102111.22;20811357;28;20148;-66
2023/09/30 22:17:15;;;;;;;3.20;2.20;;;;;;;19.95;85.26;102108.59;20837375;28;20162;-66
2023/09/30 22:27:16;;;;;;;4.28;2.17;;;;;;;19.93;85.32;102099.75;20824402;28;20106;-67
2023/09/30 22:37:18;;;;;;;4.35;2.30;;;;;;;19.90;85.30;102082.91;20807640;28;20222;-66
2023/09/30 22:47:20;;;;;;;3.83;2.35;;;;;;;19.86;85.19;102069.63;20831264;28;20049;-66
2023/09/30 22:57:21;;;;;;;5.45;2.15;;;;;;;19.83;85.22;102072.56;20806258;28;20083;-66
2023/09/30 23:07:24;;;;;;;4.60;2.50;;;;;;;19.81;85.13;102074.53;20826371;28;20045;-66
2023/09/30 23:17:26;;;;;;;3.65;2.33;;;;;;;19.78;84.95;102058.56;20822368;28;20143;-66
2023/09/30 23:27:29;;;;;;;3.72;2.15;;;;;;;19.75;84.81;102031.78;20821124;28;20049;-66
2023/09/30 23:37:31;;;;;;;4.63;2.17;;;;;;;19.71;84.85;102041.97;20825062;28;20045;-66
2023/09/30 23:47:33;;;;;;;3.10;2.20;;;;;;;19.71;84.66;102051.91;20829912;28;20493;-66
2023/09/30 23:57:55;;;;;;;3.15;2.30;;;;;;;19.69;84.62;102059.28;20821560;28;20080;-66
